Loma Mar, California
Current Conditions -  °F | °C
As of 2:10 AM on Friday 19 Dec 2014 (Local Time) from KSQL Reporting Station
Overcast Overcast  
Wind Chill: 13°   Ceiling: 2800
Heat Index: 13°   Visibility: 10mi
Dew Point: 10°   Wind: 5mph
Humidity: 82%   Direction: 170°S
Pressure: 30.17"   Gusts: NA
Location:  37.27°N, 122.31°W
Report Text: KSQL 191010Z AUTO 17004KT 10SM BKN028 BKN033 OVC043 13/10 A3017 RMK AO2
Loading
Personal Weather Stations






























Interactive Weather Map New forecast layout! Learn more

10-Day Weather Forecast

Advertisements
Track Severe Weather on mobile